Time;durP1;ratioP1;P1;durP2;ratioP2;P2;SDS_P1;SDS_P2;PMS_P1;PMS_P2;Temp;Humidity;BMP_temperature;BMP_pressure;BME280_temperature;BME280_humidity;BME280_pressure;Samples;Min_cycle;Max_cycle;Signal;HPM_P1;HPM_P2
2021/01/12 00:02:09;;;;;;;49.60;31.15;;;5.00;99.90;;;;;;5010096;28;20030;-62
2021/01/12 00:04:34;;;;;;;54.05;34.38;;;5.00;99.90;;;;;;4997693;28;20496;-63
2021/01/12 00:07:00;;;;;;;46.58;29.35;;;5.00;99.90;;;;;;4998732;28;20065;-61
2021/01/12 00:09:25;;;;;;;55.28;36.60;;;5.00;99.90;;;;;;5009528;28;20389;-62
2021/01/12 00:11:54;;;;;;;55.10;35.92;;;5.00;99.90;;;;;;5011585;28;20057;-63
2021/01/12 00:14:31;;;;;;;53.85;33.42;;;5.00;99.90;;;;;;4744934;28;10000586;-62
2021/01/12 00:17:01;;;;;;;52.85;32.22;;;5.00;99.90;;;;;;4988863;28;20293;-63
2021/01/12 00:19:27;;;;;;;53.83;32.72;;;5.00;99.90;;;;;;4986957;28;20101;-63
2021/01/12 00:21:54;;;;;;;50.53;32.05;;;5.00;99.90;;;;;;4994848;28;20060;-63
2021/01/12 00:24:20;;;;;;;53.90;29.17;;;5.00;99.90;;;;;;5024916;28;20044;-60
2021/01/12 00:26:46;;;;;;;50.05;33.60;;;5.00;99.90;;;;;;5009263;28;20026;-62
2021/01/12 00:29:12;;;;;;;56.92;34.85;;;5.00;99.90;;;;;;5016741;28;20037;-64
2021/01/12 00:31:42;;;;;;;51.67;32.05;;;5.00;99.90;;;;;;5027733;28;20029;-62
2021/01/12 00:34:08;;;;;;;46.03;30.38;;;5.00;99.90;;;;;;5019870;28;20471;-63
2021/01/12 00:37:00;;;;;;;53.10;32.53;;;5.00;99.90;;;;;;5028240;28;20119;-63
2021/01/12 00:39:26;;;;;;;51.25;32.88;;;5.00;99.90;;;;;;5024108;28;20116;-62
2021/01/12 00:41:56;;;;;;;54.88;34.15;;;5.00;99.90;;;;;;5027121;28;20136;-63
2021/01/12 00:44:23;;;;;;;45.90;28.15;;;5.00;99.90;;;;;;5031410;28;20022;-63
2021/01/12 00:46:49;;;;;;;52.00;33.53;;;5.00;99.90;;;;;;5031300;28;20048;-62
2021/01/12 00:49:19;;;;;;;53.47;34.47;;;5.10;99.90;;;;;;5028842;28;20418;-61
2021/01/12 00:51:46;;;;;;;49.35;32.50;;;5.10;99.90;;;;;;5029242;28;20029;-62
2021/01/12 00:54:14;;;;;;;53.10;31.95;;;5.10;99.90;;;;;;5029437;28;20029;-62
2021/01/12 00:56:40;;;;;;;52.95;32.50;;;5.10;99.90;;;;;;4994170;28;20018;-57
2021/01/12 00:59:05;;;;;;;43.03;28.05;;;5.10;99.90;;;;;;4992073;28;20371;-63
2021/01/12 01:01:32;;;;;;;50.42;30.50;;;5.10;99.90;;;;;;4994221;28;20104;-63
2021/01/12 01:03:58;;;;;;;51.47;32.03;;;5.10;99.90;;;;;;4994280;28;20034;-63
2021/01/12 01:06:24;;;;;;;46.45;29.23;;;5.10;99.90;;;;;;4994025;28;20165;-62
2021/01/12 01:08:50;;;;;;;53.38;30.98;;;5.10;99.90;;;;;;4994849;28;20525;-63
2021/01/12 01:11:16;;;;;;;44.70;28.85;;;5.10;99.90;;;;;;4995829;28;20030;-63
2021/01/12 01:13:44;;;;;;;46.63;28.55;;;5.20;99.90;;;;;;4994260;28;20093;-63
2021/01/12 01:16:09;;;;;;;50.75;32.63;;;5.20;99.90;;;;;;4995248;28;20038;-63
2021/01/12 01:18:36;;;;;;;49.38;32.65;;;5.10;99.90;;;;;;4993101;28;20097;-63
2021/01/12 01:21:02;;;;;;;49.20;30.83;;;5.20;99.90;;;;;;4993941;28;20026;-63
2021/01/12 01:23:28;;;;;;;52.00;32.20;;;5.10;99.90;;;;;;4993977;28;20390;-62
2021/01/12 01:25:54;;;;;;;47.92;32.28;;;5.20;99.90;;;;;;4995702;28;20022;-63
2021/01/12 01:28:20;;;;;;;50.60;30.83;;;5.20;99.90;;;;;;4993323;28;20054;-63
2021/01/12 01:30:47;;;;;;;52.50;30.25;;;5.20;99.90;;;;;;4995044;28;20043;-63
2021/01/12 01:33:13;;;;;;;47.42;29.85;;;5.20;99.90;;;;;;4994223;28;20429;-63
2021/01/12 01:35:38;;;;;;;52.03;31.67;;;5.20;99.90;;;;;;4994891;28;20493;-62
2021/01/12 01:38:04;;;;;;;44.63;30.95;;;5.20;99.90;;;;;;4994500;28;20034;-63
2021/01/12 01:40:30;;;;;;;44.22;28.83;;;5.20;99.90;;;;;;4993093;28;20092;-63
2021/01/12 01:42:56;;;;;;;41.97;27.13;;;5.30;99.90;;;;;;4993494;28;20030;-62
2021/01/12 01:45:24;;;;;;;12.77;8.02;;;5.20;99.90;;;;;;4993723;28;20026;-63
2021/01/12 01:47:50;;;;;;;12.88;7.57;;;5.30;99.90;;;;;;4993337;28;20027;-63
2021/01/12 01:50:18;;;;;;;12.02;7.05;;;5.30;99.90;;;;;;4976808;28;20026;-63
2021/01/12 01:52:48;;;;;;;12.80;7.93;;;5.30;99.90;;;;;;4993800;28;20512;-61
2021/01/12 01:55:15;;;;;;;13.05;7.80;;;5.30;99.90;;;;;;4992691;28;20169;-63
2021/01/12 01:57:41;;;;;;;13.07;7.80;;;5.30;99.90;;;;;;4994609;28;20318;-63
2021/01/12 02:00:08;;;;;;;13.98;9.55;;;5.40;99.90;;;;;;4992637;28;20092;-62
2021/01/12 02:02:43;;;;;;;12.90;8.05;;;5.30;99.90;;;;;;4994610;28;20027;-62
2021/01/12 02:05:12;;;;;;;12.52;7.38;;;5.40;99.90;;;;;;4993684;28;20034;-63
2021/01/12 02:07:42;;;;;;;12.25;7.78;;;5.30;99.90;;;;;;4994963;28;20027;-62
2021/01/12 02:10:10;;;;;;;12.40;7.40;;;5.40;99.90;;;;;;4993377;28;20061;-63
2021/01/12 02:12:43;;;;;;;12.05;7.30;;;5.40;99.90;;;;;;4993308;28;20489;-63
2021/01/12 02:15:11;;;;;;;12.73;7.65;;;5.40;99.90;;;;;;4994357;28;20517;-63
2021/01/12 02:17:37;;;;;;;12.05;7.10;;;5.40;99.90;;;;;;4994235;28;20046;-63
2021/01/12 02:20:03;;;;;;;12.18;7.25;;;5.40;99.90;;;;;;4991773;28;20026;-62
2021/01/12 02:22:29;;;;;;;12.35;7.45;;;5.40;99.90;;;;;;4992686;28;20062;-63
2021/01/12 02:24:55;;;;;;;11.68;7.28;;;5.40;99.90;;;;;;4993834;28;20057;-63
2021/01/12 02:27:22;;;;;;;17.42;8.35;;;5.40;99.90;;;;;;4992706;28;20027;-63
2021/01/12 02:29:51;;;;;;;12.48;7.40;;;5.40;99.90;;;;;;4993445;28;20466;-63
2021/01/12 02:32:18;;;;;;;11.60;6.85;;;5.40;99.90;;;;;;4993856;28;20057;-63
2021/01/12 02:34:45;;;;;;;12.15;7.38;;;5.50;99.90;;;;;;4992160;28;20025;-62
2021/01/12 02:37:16;;;;;;;12.82;8.60;;;5.50;99.90;;;;;;4993678;28;20026;-63
2021/01/12 02:39:43;;;;;;;12.02;7.05;;;5.50;99.90;;;;;;4991523;28;20034;-63
2021/01/12 02:42:14;;;;;;;11.60;7.00;;;5.50;99.90;;;;;;4992296;28;20030;-63
2021/01/12 02:44:40;;;;;;;12.13;7.45;;;5.50;99.90;;;;;;4993399;28;20435;-63
2021/01/12 02:47:05;;;;;;;11.93;6.95;;;5.50;99.90;;;;;;4993312;28;20061;-64
2021/01/12 02:49:31;;;;;;;11.90;7.10;;;5.50;99.90;;;;;;4992647;28;20018;-63
2021/01/12 02:51:57;;;;;;;11.02;6.78;;;5.50;99.90;;;;;;4992150;28;20030;-62
2021/01/12 02:54:22;;;;;;;11.48;6.90;;;5.50;99.90;;;;;;4990336;28;20050;-64
2021/01/12 02:56:48;;;;;;;13.70;7.63;;;5.50;99.90;;;;;;4992027;28;20026;-63
2021/01/12 02:59:14;;;;;;;11.95;7.07;;;5.50;99.90;;;;;;4991075;28;20069;-64
2021/01/12 03:01:40;;;;;;;12.20;7.30;;;5.50;99.90;;;;;;4993241;28;20037;-64
2021/01/12 03:04:06;;;;;;;13.15;7.80;;;5.50;99.90;;;;;;4993014;28;20022;-63
2021/01/12 03:06:31;;;;;;;12.27;7.15;;;5.50;99.90;;;;;;4991784;28;20037;-63
2021/01/12 03:08:57;;;;;;;13.00;8.18;;;5.50;99.90;;;;;;4991086;28;20031;-63
2021/01/12 03:11:25;;;;;;;11.30;6.65;;;5.60;99.90;;;;;;4991506;28;20030;-62
2021/01/12 03:13:50;;;;;;;11.38;6.85;;;5.60;99.90;;;;;;4991815;28;20371;-64
2021/01/12 03:16:16;;;;;;;12.05;7.68;;;5.60;99.90;;;;;;4992675;28;20084;-64
2021/01/12 03:18:42;;;;;;;10.43;6.18;;;5.60;99.90;;;;;;4992155;28;20026;-63
2021/01/12 03:21:08;;;;;;;10.13;6.05;;;5.60;99.90;;;;;;4975161;28;20034;-65
2021/01/12 03:23:33;;;;;;;11.50;7.03;;;5.60;99.90;;;;;;4992769;28;20022;-64
2021/01/12 03:25:59;;;;;;;10.50;6.22;;;5.60;99.90;;;;;;4992286;28;20104;-63
2021/01/12 03:28:24;;;;;;;10.88;6.43;;;5.60;99.90;;;;;;4992225;28;20034;-62
2021/01/12 03:30:50;;;;;;;10.80;6.38;;;5.60;99.90;;;;;;4991110;28;20034;-63
2021/01/12 03:33:15;;;;;;;11.55;6.80;;;5.60;99.90;;;;;;4992253;28;20050;-64
2021/01/12 03:35:41;;;;;;;11.00;6.60;;;5.60;99.90;;;;;;4991442;28;20520;-64
2021/01/12 03:38:07;;;;;;;10.18;6.00;;;5.60;99.90;;;;;;4991231;28;20026;-63
2021/01/12 03:40:33;;;;;;;10.55;6.85;;;5.60;99.90;;;;;;5018541;23;20045;-66
2021/01/12 03:42:58;;;;;;;11.10;6.55;;;5.60;99.90;;;;;;5010608;28;20032;-67
2021/01/12 03:45:26;;;;;;;11.32;6.72;;;5.70;99.90;;;;;;5012011;28;20018;-66
2021/01/12 03:47:52;;;;;;;11.20;7.07;;;5.60;99.90;;;;;;5010320;28;20026;-66
2021/01/12 03:50:17;;;;;;;9.50;5.85;;;5.60;99.90;;;;;;5010083;28;20036;-66
2021/01/12 03:52:43;;;;;;;11.05;6.50;;;5.60;99.90;;;;;;5011960;28;20021;-67
2021/01/12 03:55:10;;;;;;;10.45;6.20;;;5.70;99.90;;;;;;5010504;28;20034;-66
2021/01/12 03:57:36;;;;;;;10.48;6.40;;;5.70;99.90;;;;;;5010686;28;20120;-66
2021/01/12 04:00:04;;;;;;;9.70;5.70;;;5.70;99.90;;;;;;5009835;28;20137;-66
2021/01/12 04:02:29;;;;;;;11.38;7.70;;;5.60;99.90;;;;;;5011500;28;20051;-66
2021/01/12 04:04:55;;;;;;;10.65;6.68;;;5.70;99.90;;;;;;5011725;28;20030;-66
2021/01/12 04:07:22;;;;;;;10.25;6.07;;;5.70;99.90;;;;;;5010648;28;20045;-66
2021/01/12 04:09:50;;;;;;;9.82;5.80;;;5.60;99.90;;;;;;5010010;28;20087;-66
2021/01/12 04:12:15;;;;;;;10.15;6.30;;;5.70;99.90;;;;;;5011632;28;20084;-66
2021/01/12 04:14:41;;;;;;;9.68;5.70;;;5.70;99.90;;;;;;5010705;28;20026;-66
2021/01/12 04:17:08;;;;;;;10.98;7.03;;;5.70;99.90;;;;;;5012409;28;20029;-66
2021/01/12 04:19:33;;;;;;;9.20;5.45;;;5.70;99.90;;;;;;5014059;28;20022;-66
2021/01/12 04:21:59;;;;;;;10.57;6.38;;;5.70;99.90;;;;;;5014195;28;20496;-65
2021/01/12 04:24:25;;;;;;;9.68;5.78;;;5.70;99.90;;;;;;5013915;28;20034;-66
2021/01/12 04:26:50;;;;;;;9.50;5.60;;;5.70;99.90;;;;;;5014334;28;20128;-67
2021/01/12 04:29:17;;;;;;;9.48;5.63;;;5.70;99.90;;;;;;5014898;28;20043;-66
2021/01/12 04:31:43;;;;;;;9.82;5.80;;;5.70;99.90;;;;;;5013981;28;20026;-65
2021/01/12 04:34:08;;;;;;;10.65;6.28;;;5.70;99.90;;;;;;5014010;28;20425;-66
2021/01/12 04:36:34;;;;;;;12.85;7.72;;;5.70;99.90;;;;;;5015317;28;20117;-66
2021/01/12 04:38:59;;;;;;;9.50;5.70;;;5.70;99.90;;;;;;5014571;28;20096;-66
2021/01/12 04:41:26;;;;;;;10.73;6.30;;;5.80;99.90;;;;;;5014997;28;20033;-66
2021/01/12 04:43:52;;;;;;;10.07;6.00;;;5.70;99.90;;;;;;5013924;28;20378;-66
2021/01/12 04:46:18;;;;;;;10.18;6.00;;;5.70;99.90;;;;;;5013523;28;20026;-66
2021/01/12 04:48:43;;;;;;;10.15;6.45;;;5.80;99.90;;;;;;5014443;28;20022;-66
2021/01/12 04:51:11;;;;;;;10.80;6.47;;;5.80;99.90;;;;;;5014933;28;20097;-66
2021/01/12 04:53:38;;;;;;;9.20;5.43;;;5.80;99.90;;;;;;5013707;28;20026;-68
2021/01/12 04:56:04;;;;;;;9.50;5.60;;;5.80;99.90;;;;;;5015107;28;20022;-66
2021/01/12 04:58:38;;;;;;;10.30;6.30;;;5.70;99.90;;;;;;5014667;28;20038;-64
2021/01/12 05:01:10;;;;;;;10.60;6.32;;;5.80;99.90;;;;;;5014872;28;20088;-66
2021/01/12 05:03:36;;;;;;;10.90;6.50;;;5.80;99.90;;;;;;5014762;28;20109;-65
2021/01/12 05:06:02;;;;;;;10.88;6.43;;;5.80;99.90;;;;;;5014832;28;20052;-67
2021/01/12 05:08:28;;;;;;;10.55;6.22;;;5.80;99.90;;;;;;5014052;28;20438;-66
2021/01/12 05:10:57;;;;;;;10.00;5.90;;;5.80;99.90;;;;;;5014842;28;20132;-66
2021/01/12 05:13:25;;;;;;;9.73;5.80;;;5.80;99.90;;;;;;5013527;28;20128;-67
2021/01/12 05:15:53;;;;;;;10.20;6.28;;;5.90;99.90;;;;;;5015683;28;20025;-67
2021/01/12 05:18:19;;;;;;;10.50;6.20;;;5.90;99.90;;;;;;5014236;28;20025;-65
2021/01/12 05:20:49;;;;;;;10.68;6.38;;;5.90;99.90;;;;;;5013394;28;20393;-66
2021/01/12 05:23:23;;;;;;;9.82;5.82;;;5.90;99.90;;;;;;5014738;28;20037;-65
2021/01/12 05:25:51;;;;;;;10.60;6.30;;;5.90;99.90;;;;;;5014570;28;20026;-65
2021/01/12 05:28:18;;;;;;;9.45;5.65;;;5.90;99.90;;;;;;5012529;28;20128;-64
2021/01/12 05:30:47;;;;;;;10.60;6.50;;;6.00;99.90;;;;;;5014000;28;20022;-65
2021/01/12 05:33:17;;;;;;;9.50;5.65;;;5.90;99.90;;;;;;5014531;28;20105;-65
2021/01/12 05:35:46;;;;;;;10.10;5.93;;;6.00;99.90;;;;;;5014600;28;20033;-64
2021/01/12 05:38:27;;;;;;;9.80;5.78;;;6.00;99.90;;;;;;5012604;28;20064;-65
2021/01/12 05:40:55;;;;;;;9.63;5.70;;;6.00;99.90;;;;;;5013089;28;20092;-65
2021/01/12 05:43:32;;;;;;;10.98;6.45;;;6.00;99.90;;;;;;5013242;28;20021;-65
2021/01/12 05:45:57;;;;;;;11.35;6.95;;;6.10;99.90;;;;;;5014119;28;20036;-65
2021/01/12 05:48:25;;;;;;;9.50;6.05;;;6.10;99.90;;;;;;5012206;28;20034;-64
2021/01/12 05:50:56;;;;;;;9.57;5.68;;;6.10;99.90;;;;;;5013293;28;20389;-65
2021/01/12 05:53:30;;;;;;;9.13;5.40;;;6.10;99.90;;;;;;5014378;28;20392;-64
2021/01/12 05:56:00;;;;;;;8.70;5.15;;;6.10;99.90;;;;;;5012566;28;20026;-64
2021/01/12 05:58:32;;;;;;;8.30;4.93;;;6.10;99.90;;;;;;5013748;28;20116;-64
2021/01/12 06:01:02;;;;;;;8.90;5.30;;;6.10;99.90;;;;;;4996249;28;20128;-64
2021/01/12 06:03:29;;;;;;;8.40;5.05;;;6.10;99.90;;;;;;5013355;28;20366;-65
2021/01/12 06:05:55;;;;;;;9.43;5.60;;;6.20;99.90;;;;;;5012122;28;20029;-65
2021/01/12 06:08:21;;;;;;;9.30;5.50;;;6.20;99.90;;;;;;5012811;28;20068;-65
2021/01/12 06:10:47;;;;;;;7.80;4.65;;;6.20;99.90;;;;;;5011712;28;20442;-65
2021/01/12 06:13:16;;;;;;;7.60;4.50;;;6.20;99.90;;;;;;5013341;28;20034;-65
2021/01/12 06:15:45;;;;;;;8.93;5.30;;;6.20;99.90;;;;;;5013199;28;20075;-65
2021/01/12 06:18:20;;;;;;;8.55;5.20;;;6.20;99.90;;;;;;5011377;28;20140;-63
2021/01/12 06:20:45;;;;;;;8.80;5.20;;;6.20;99.90;;;;;;5011361;28;20120;-64
2021/01/12 06:23:21;;;;;;;8.50;5.20;;;6.20;99.90;;;;;;5012871;28;20109;-64
2021/01/12 06:25:46;;;;;;;8.90;5.43;;;6.20;99.90;;;;;;5011420;28;20022;-65
2021/01/12 06:28:12;;;;;;;8.77;5.20;;;6.20;99.90;;;;;;5012618;28;20157;-64
2021/01/12 06:30:38;;;;;;;8.13;4.82;;;6.30;99.90;;;;;;5012209;28;20040;-65
2021/01/12 06:33:05;;;;;;;7.60;4.55;;;6.30;99.90;;;;;;5013000;28;20034;-65
2021/01/12 06:35:37;;;;;;;7.63;4.57;;;6.20;99.90;;;;;;5012849;28;20163;-65
2021/01/12 06:38:06;;;;;;;8.15;4.85;;;6.30;99.90;;;;;;5012652;28;20022;-65
2021/01/12 06:40:34;;;;;;;8.43;5.00;;;6.20;99.90;;;;;;5010497;28;20405;-65
2021/01/12 06:42:59;;;;;;;8.60;5.10;;;6.30;99.90;;;;;;5012487;28;20092;-65
2021/01/12 06:45:27;;;;;;;9.32;5.60;;;6.20;99.90;;;;;;5013000;28;20509;-65
2021/01/12 06:47:54;;;;;;;9.43;5.80;;;6.20;99.90;;;;;;5011474;28;20084;-65
2021/01/12 06:50:23;;;;;;;8.70;5.20;;;6.20;99.90;;;;;;5011215;28;20200;-65
2021/01/12 06:52:50;;;;;;;9.63;5.93;;;6.30;99.90;;;;;;5011409;28;20036;-65
2021/01/12 06:55:18;;;;;;;9.63;5.70;;;6.30;99.90;;;;;;5012440;28;20482;-66
2021/01/12 06:57:45;;;;;;;9.43;5.63;;;6.30;99.90;;;;;;5010939;28;20104;-66
2021/01/12 07:00:12;;;;;;;10.10;6.20;;;6.20;99.90;;;;;;5011939;28;20033;-66
2021/01/12 07:02:37;;;;;;;9.20;5.50;;;6.20;99.90;;;;;;5012384;28;20041;-66
2021/01/12 07:05:06;;;;;;;9.43;5.57;;;6.30;99.90;;;;;;5011285;28;20022;-65
2021/01/12 07:07:51;;;;;;;;;;;6.30;99.90;;;;;;5012772;28;20029;-67
2021/01/12 07:10:24;;;;;;;8.98;5.32;;;6.30;99.90;;;;;;5011039;28;19909;-65
2021/01/12 07:12:52;;;;;;;9.27;5.50;;;6.20;99.90;;;;;;5010826;28;20079;-66
2021/01/12 07:15:18;;;;;;;8.97;5.37;;;6.30;99.90;;;;;;5010750;28;20030;-66
2021/01/12 07:17:54;;;;;;;9.20;5.75;;;6.30;99.90;;;;;;5011961;28;20026;-66
2021/01/12 07:20:24;;;;;;;8.30;4.90;;;6.30;99.90;;;;;;5011555;28;20022;-66
2021/01/12 07:23:08;;;;;;;8.63;5.13;;;6.30;99.90;;;;;;5012053;28;20083;-66
2021/01/12 07:25:38;;;;;;;8.20;4.95;;;6.30;99.90;;;;;;5012287;28;20018;-66
2021/01/12 07:28:08;;;;;;;9.43;5.60;;;6.20;99.90;;;;;;5011488;28;20057;-66
2021/01/12 07:30:35;;;;;;;9.38;5.60;;;6.30;99.90;;;;;;5010418;28;20021;-67
2021/01/12 07:33:04;;;;;;;8.80;5.23;;;6.30;99.90;;;;;;5011832;28;20160;-66
2021/01/12 07:35:31;;;;;;;8.65;5.10;;;6.30;99.90;;;;;;5012321;28;20029;-65
2021/01/12 07:37:57;;;;;;;9.18;5.40;;;6.30;99.90;;;;;;5010543;28;20033;-66
2021/01/12 07:40:23;;;;;;;8.27;4.95;;;6.30;99.90;;;;;;5011112;28;20061;-65
2021/01/12 07:42:54;;;;;;;8.90;5.28;;;6.30;99.90;;;;;;5012036;28;20026;-67
2021/01/12 07:45:25;;;;;;;9.00;5.30;;;6.30;99.90;;;;;;5010954;28;20026;-66
2021/01/12 07:47:53;;;;;;;11.52;5.93;;;6.30;99.90;;;;;;5010604;28;20374;-67
2021/01/12 07:50:26;;;;;;;9.77;5.80;;;6.30;99.90;;;;;;5009896;28;20034;-66
2021/01/12 07:52:52;;;;;;;9.48;5.68;;;6.30;99.90;;;;;;5011193;28;20433;-66
2021/01/12 07:55:18;;;;;;;8.73;5.32;;;6.30;99.90;;;;;;5011908;28;20026;-65
2021/01/12 07:57:48;;;;;;;12.18;6.10;;;6.30;99.90;;;;;;5010584;28;20461;-65
2021/01/12 08:00:16;;;;;;;8.88;5.30;;;6.30;99.90;;;;;;5010961;28;20038;-65
2021/01/12 08:02:53;;;;;;;9.25;5.50;;;6.30;99.90;;;;;;5011515;28;20466;-65
2021/01/12 08:05:21;;;;;;;8.15;4.85;;;6.30;99.90;;;;;;5010683;28;20062;-66
2021/01/12 08:07:48;;;;;;;10.50;6.40;;;6.30;99.90;;;;;;5011471;28;20375;-66
2021/01/12 08:10:13;;;;;;;9.02;5.40;;;6.40;99.90;;;;;;5010967;28;20025;-67
2021/01/12 08:12:40;;;;;;;9.85;6.03;;;6.40;99.90;;;;;;5010349;28;20034;-66
2021/01/12 08:15:14;;;;;;;9.40;5.60;;;6.40;99.90;;;;;;4994209;28;20030;-67
2021/01/12 08:17:49;;;;;;;9.30;5.50;;;6.40;99.90;;;;;;4984210;28;20083;-65
2021/01/12 08:20:17;;;;;;;9.23;5.50;;;6.40;99.90;;;;;;4990078;28;20513;-66
2021/01/12 08:22:50;;;;;;;9.60;5.70;;;6.40;99.90;;;;;;4990564;28;20031;-67
2021/01/12 08:25:16;;;;;;;8.13;4.90;;;6.40;99.90;;;;;;4990863;28;20049;-67
2021/01/12 08:27:50;;;;;;;7.93;4.70;;;6.40;99.90;;;;;;4991833;28;20113;-67
2021/01/12 08:30:24;;;;;;;8.68;5.10;;;6.40;99.90;;;;;;4989816;28;20084;-68
2021/01/12 08:33:02;;;;;;;8.35;5.00;;;6.40;99.90;;;;;;4991943;28;20027;-66
2021/01/12 08:35:29;;;;;;;8.63;5.13;;;6.50;99.90;;;;;;4990880;28;20030;-68
2021/01/12 08:38:01;;;;;;;8.27;4.90;;;6.50;99.90;;;;;;4992075;28;20556;-67
2021/01/12 08:40:29;;;;;;;9.30;5.50;;;6.50;99.90;;;;;;4991347;28;20046;-67
2021/01/12 08:42:57;;;;;;;8.88;5.30;;;6.60;99.90;;;;;;4992069;28;20106;-65
2021/01/12 08:45:23;;;;;;;8.02;4.80;;;6.60;99.90;;;;;;4991126;28;20128;-65
2021/01/12 08:47:51;;;;;;;9.25;5.95;;;6.50;99.90;;;;;;4991502;28;20019;-64
2021/01/12 08:50:17;;;;;;;8.18;4.90;;;6.50;99.90;;;;;;4991162;28;20054;-65
2021/01/12 08:52:50;;;;;;;8.88;5.50;;;6.50;99.90;;;;;;4988373;28;20093;-60
2021/01/12 08:55:16;;;;;;;8.80;5.20;;;6.60;99.90;;;;;;4991842;28;20109;-59
2021/01/12 08:57:42;;;;;;;9.52;6.05;;;6.50;99.90;;;;;;4991452;28;20057;-60
2021/01/12 09:00:14;;;;;;;8.52;5.07;;;6.60;99.90;;;;;;4990224;28;20057;-59
2021/01/12 09:02:40;;;;;;;9.13;5.65;;;6.60;99.90;;;;;;4989710;28;20072;-55
2021/01/12 09:05:07;;;;;;;8.60;5.10;;;6.60;99.90;;;;;;4995109;28;20034;-60
2021/01/12 09:07:33;;;;;;;9.43;5.60;;;6.70;99.90;;;;;;4993871;28;20030;-53
2021/01/12 09:09:59;;;;;;;11.00;6.30;;;6.70;99.90;;;;;;4994695;28;20385;-60
2021/01/12 09:12:25;;;;;;;9.10;5.40;;;6.60;99.90;;;;;;4994995;28;20022;-60
2021/01/12 09:14:51;;;;;;;8.55;5.10;;;6.60;99.90;;;;;;4994358;28;20027;-55
2021/01/12 09:17:19;;;;;;;8.07;4.80;;;6.70;99.90;;;;;;4994695;28;20102;-53
2021/01/12 09:19:49;;;;;;;9.10;6.15;;;6.70;99.90;;;;;;4992994;28;20109;-53
2021/01/12 09:22:15;;;;;;;9.13;5.40;;;6.70;99.90;;;;;;4994653;28;20026;-48
2021/01/12 09:24:52;;;;;;;9.23;5.45;;;6.80;99.90;;;;;;4993215;28;20277;-53
2021/01/12 09:27:28;;;;;;;9.68;5.75;;;6.80;99.90;;;;;;4994511;28;20050;-51
2021/01/12 09:29:54;;;;;;;8.73;5.18;;;6.80;99.90;;;;;;4993131;28;20040;-49
2021/01/12 09:32:27;;;;;;;9.23;5.50;;;6.80;99.90;;;;;;4993007;28;20018;-52
2021/01/12 09:34:53;;;;;;;11.05;6.15;;;6.80;99.90;;;;;;4993250;28;20486;-49
2021/01/12 09:37:20;;;;;;;9.27;5.53;;;6.90;99.90;;;;;;4994282;28;20053;-52
2021/01/12 09:39:51;;;;;;;9.10;5.40;;;6.80;99.90;;;;;;4991873;28;20029;-50
2021/01/12 09:42:24;;;;;;;8.48;4.97;;;6.90;99.90;;;;;;5009964;23;20486;-65
2021/01/12 09:44:50;;;;;;;8.40;5.00;;;6.80;99.90;;;;;;4993760;28;20038;-62
2021/01/12 09:47:15;;;;;;;8.35;4.97;;;6.90;99.90;;;;;;4996077;28;20062;-62
2021/01/12 09:49:41;;;;;;;8.57;5.10;;;6.90;99.90;;;;;;5002179;28;20029;-64
2021/01/12 09:52:07;;;;;;;8.18;4.88;;;6.80;99.90;;;;;;5015213;28;20038;-65
2021/01/12 09:54:33;;;;;;;7.70;4.60;;;6.90;99.90;;;;;;5013871;28;20117;-65
2021/01/12 09:56:59;;;;;;;7.82;4.63;;;6.80;99.90;;;;;;5013288;28;20096;-60
2021/01/12 09:59:25;;;;;;;8.45;5.03;;;6.70;99.90;;;;;;5011011;28;20092;-65
2021/01/12 10:01:57;;;;;;;8.00;4.80;;;6.30;99.90;;;;;;5012104;28;20022;-64
2021/01/12 10:04:23;;;;;;;8.30;4.93;;;6.10;99.90;;;;;;5011747;28;20029;-65
2021/01/12 10:06:56;;;;;;;7.97;4.75;;;6.00;99.90;;;;;;5012058;28;20048;-66
2021/01/12 10:09:21;;;;;;;7.90;4.70;;;5.90;99.90;;;;;;5011281;28;20018;-62
2021/01/12 10:11:47;;;;;;;7.78;4.65;;;5.80;99.90;;;;;;5011706;28;20048;-63
2021/01/12 10:14:13;;;;;;;7.88;4.68;;;5.70;99.90;;;;;;5009852;28;20075;-64
2021/01/12 10:16:38;;;;;;;7.82;4.60;;;5.70;99.90;;;;;;5011251;28;20041;-63
2021/01/12 10:19:04;;;;;;;7.15;4.30;;;5.70;99.90;;;;;;5011081;28;20029;-60
2021/01/12 10:21:30;;;;;;;7.57;4.50;;;5.80;99.90;;;;;;5010199;28;20022;-62
2021/01/12 10:23:55;;;;;;;6.97;4.20;;;5.80;99.90;;;;;;5009887;28;20397;-62
2021/01/12 10:26:21;;;;;;;6.93;4.10;;;5.80;99.90;;;;;;5011609;28;20038;-64
2021/01/12 10:28:47;;;;;;;6.88;4.10;;;5.90;99.90;;;;;;5010146;28;20041;-62
2021/01/12 10:31:14;;;;;;;7.90;4.70;;;5.90;99.90;;;;;;5011594;28;20036;-63
2021/01/12 10:33:43;;;;;;;7.20;4.30;;;5.80;99.90;;;;;;5010248;28;20030;-63
2021/01/12 10:36:13;;;;;;;7.35;4.38;;;5.80;99.90;;;;;;5010946;28;20038;-63
2021/01/12 10:38:39;;;;;;;6.68;4.00;;;5.90;99.90;;;;;;5009163;28;20030;-64
2021/01/12 10:41:05;;;;;;;6.70;4.00;;;5.90;99.90;;;;;;5008389;28;20033;-64
2021/01/12 10:43:31;;;;;;;7.00;4.20;;;5.90;99.90;;;;;;5009326;28;20079;-63
2021/01/12 10:45:56;;;;;;;6.50;3.90;;;5.90;99.90;;;;;;5009708;28;20488;-64
2021/01/12 10:48:22;;;;;;;6.50;3.90;;;5.70;99.90;;;;;;5009339;28;20022;-65
2021/01/12 10:50:48;;;;;;;6.70;4.00;;;5.80;99.90;;;;;;5008838;28;20026;-65
2021/01/12 10:53:14;;;;;;;6.32;3.72;;;5.70;99.90;;;;;;5011090;28;20497;-63
2021/01/12 10:55:40;;;;;;;6.60;3.90;;;5.80;99.90;;;;;;5009962;28;20116;-65
2021/01/12 10:58:06;;;;;;;6.28;3.70;;;5.80;99.90;;;;;;5009180;28;20116;-65
2021/01/12 11:00:32;;;;;;;6.00;3.53;;;5.80;99.90;;;;;;5010486;28;20119;-65
2021/01/12 11:02:58;;;;;;;5.90;3.50;;;6.00;99.90;;;;;;5011164;28;20103;-65
2021/01/12 11:05:23;;;;;;;5.40;3.20;;;6.00;99.90;;;;;;5009657;28;20481;-64
2021/01/12 11:07:49;;;;;;;6.13;3.63;;;5.90;99.90;;;;;;5010546;28;20033;-65
2021/01/12 11:10:15;;;;;;;6.07;3.60;;;6.00;99.90;;;;;;5010561;28;20053;-65
2021/01/12 11:12:40;;;;;;;5.70;3.40;;;6.10;99.90;;;;;;5010169;28;20199;-66
2021/01/12 11:15:07;;;;;;;7.18;4.68;;;6.00;99.90;;;;;;5010315;28;20084;-65
2021/01/12 11:17:34;;;;;;;6.13;3.70;;;6.00;99.90;;;;;;5009432;28;20036;-64
2021/01/12 11:19:59;;;;;;;6.40;3.95;;;5.90;99.90;;;;;;5010155;28;20022;-65
2021/01/12 11:22:28;;;;;;;5.30;3.13;;;5.90;99.90;;;;;;5009906;28;20049;-64
2021/01/12 11:25:01;;;;;;;5.35;3.15;;;5.90;99.90;;;;;;5010598;28;20104;-64
2021/01/12 11:27:30;;;;;;;5.70;3.40;;;5.90;99.90;;;;;;5007700;28;20026;-64
2021/01/12 11:29:56;;;;;;;6.55;4.20;;;5.90;99.90;;;;;;5010041;28;20465;-64
2021/01/12 11:32:22;;;;;;;5.35;3.17;;;5.90;99.90;;;;;;5010462;28;20030;-64
2021/01/12 11:34:48;;;;;;;5.22;3.10;;;5.90;99.90;;;;;;5010364;28;20026;-65
2021/01/12 11:37:14;;;;;;;5.22;3.10;;;5.90;99.90;;;;;;5010457;28;20053;-65
2021/01/12 11:39:40;;;;;;;19.85;7.18;;;6.00;99.90;;;;;;5009711;28;20050;-64
2021/01/12 11:42:11;;;;;;;19.73;6.50;;;5.80;99.90;;;;;;5009086;28;20030;-65
2021/01/12 11:44:36;;;;;;;17.65;6.43;;;5.70;99.90;;;;;;5010398;28;20469;-65
2021/01/12 11:47:03;;;;;;;15.95;5.63;;;5.60;99.90;;;;;;5010411;28;20021;-64
2021/01/12 11:49:28;;;;;;;17.50;6.03;;;5.70;99.90;;;;;;5009710;28;20022;-63
2021/01/12 11:51:54;;;;;;;16.23;5.85;;;5.60;99.90;;;;;;5009909;28;20079;-64
2021/01/12 11:54:20;;;;;;;16.13;5.75;;;5.60;99.90;;;;;;5010143;28;20506;-65
2021/01/12 11:56:55;;;;;;;18.08;5.95;;;5.70;99.90;;;;;;5010392;28;20045;-65
2021/01/12 11:59:24;;;;;;;17.45;5.93;;;5.60;99.90;;;;;;5009480;28;20101;-65
2021/01/12 12:01:52;;;;;;;14.90;5.03;;;5.70;99.90;;;;;;5010061;28;20022;-64
2021/01/12 12:04:19;;;;;;;15.77;5.43;;;5.60;99.90;;;;;;5008804;28;20022;-66
2021/01/12 12:06:48;;;;;;;19.33;5.40;;;5.50;99.90;;;;;;5010446;28;20053;-65
2021/01/12 12:09:14;;;;;;;15.73;5.38;;;5.50;99.90;;;;;;5009639;28;20136;-64
2021/01/12 12:11:40;;;;;;;15.63;5.38;;;5.50;99.90;;;;;;5008161;28;20086;-64
2021/01/12 12:14:07;;;;;;;14.57;5.10;;;5.70;99.90;;;;;;5008340;28;20042;-65
2021/01/12 12:16:35;;;;;;;13.85;4.63;;;5.90;99.90;;;;;;5009749;28;20061;-65
2021/01/12 12:19:01;;;;;;;13.48;4.38;;;5.80;99.90;;;;;;5009611;28;20026;-63
2021/01/12 12:21:28;;;;;;;15.68;5.22;;;5.70;99.90;;;;;;5008504;28;20087;-64
2021/01/12 12:23:54;;;;;;;12.65;4.72;;;5.60;99.90;;;;;;5008405;28;20464;-64
2021/01/12 12:26:20;;;;;;;13.18;5.15;;;5.60;99.90;;;;;;5009896;28;20113;-64
2021/01/12 12:28:45;;;;;;;12.07;4.47;;;5.50;99.90;;;;;;5009199;28;20026;-64
2021/01/12 12:31:12;;;;;;;13.90;4.75;;;5.20;99.90;;;;;;5009306;28;20040;-63
2021/01/12 12:33:38;;;;;;;14.52;4.70;;;5.10;99.90;;;;;;5010197;28;20237;-63
2021/01/12 12:36:08;;;;;;;14.50;5.43;;;5.10;99.90;;;;;;4988950;28;20027;-64
2021/01/12 12:38:40;;;;;;;11.63;4.18;;;5.00;99.90;;;;;;4994054;28;20153;-64
2021/01/12 12:41:07;;;;;;;12.63;4.10;;;4.90;99.90;;;;;;5012085;28;20092;-64
2021/01/12 12:43:33;;;;;;;16.23;4.72;;;4.90;99.90;;;;;;5013735;28;20033;-65
2021/01/12 12:45:59;;;;;;;10.10;3.58;;;5.10;99.90;;;;;;5012194;28;20022;-65
2021/01/12 12:48:25;;;;;;;9.93;4.18;;;5.00;99.90;;;;;;5012750;28;20080;-64
2021/01/12 12:50:53;;;;;;;9.70;3.45;;;5.10;99.90;;;;;;5013172;28;20088;-64
2021/01/12 12:53:19;;;;;;;12.10;3.92;;;5.20;99.90;;;;;;5013640;28;20497;-65